クェゼリン環礁 の空港の天気 - METARとTAF

バックホルツ陸軍飛行場 ( PKWA / KWA ) - マーシャル諸島 クェゼリン環礁
飛行場実況気象(Metar)
観測時間12/14 18:20 MHT (12/14 06:20 UTC)
風向・風速東 6m/s
視程10km以上
天気現象
なし
気温26.8℃
湿度96%
気圧1007hPa
METARPKWA 140620Z AUTO 08012KT 10SM CLR 27/26 A2973 RMK AO2 T02680261
過去の天気等 Google飛行場航空写真 Wunderground天気予報

過去48時間のMETAR

飛行場予報(TAF)
発表時間: 12/14 17:38 MHT (12/14 05:38 UTC)
予報対象時間: 14日18時 MHT ~ 15日18時 MHT
風向・風速東南東 9m/s 瞬間風速 14m/s
視程10km以上
天気現象周辺でしゅう雨
全天の4割程度の雲 雲底高度 550m
全天の4割程度の雲 雲底高度 1520m
14日18時 MHT ~ 14日19時 MHT に一時的に
視程4830m
天気現象しゅう雨
全天の8割程度の雲 雲底高度 430m
全天を覆う雲 雲底高度 910m
14日19時 MHT から
風向・風速東 7m/s 瞬間風速 12m/s
視程10km以上
天気現象周辺でしゅう雨
全天の4割程度の雲 雲底高度 550m
全天の4割程度の雲 雲底高度 1520m
14日19時 MHT ~ 14日23時 MHT に一時的に
視程3220m
天気現象強いしゅう雨
全天の8割程度の雲 雲底高度 400m
全天を覆う雲 雲底高度 760m
PKWA 140538Z 1406/1506 11018G28KT P6SM VCSH SCT018 SCT050
TEMPO 1406/1407 3SM SHRA BKN014 OVC030
FM140700 08014G24KT P6SM VCSH SCT018 SCT050
TEMPO 1407/1411 2SM +SHRA BKN013 OVC025